Terminal Aerodrome Forecast
Issued by NWS

Home | Current Version | Previous Version | Text Only | Print | Product List | Glossary On
Versions: 1 2 3 4 5 6 7 8 9 10 11 12 13 14 15
000
FTUS45 KRIW 072321
TAFLND
TAF
KLND 072321Z 0800/0824 03008KT P6SM VCTS SCT050CB BKN090
     FM080300 VRB06KT P6SM VCSH BKN060
     FM080600 25007KT P6SM BKN080
     FM081900 VRB10G16KT P6SM VCTS SCT050CB BKN090=

USA.gov is the U.S. government's official web portal to all federal, state and local government web resources and services.